Time;durP1;ratioP1;P1;durP2;ratioP2;P2;SDS_P1;SDS_P2;PMS_P1;PMS_P2;Temp;Humidity;BMP_temperature;BMP_pressure;BME280_temperature;BME280_humidity;BME280_pressure;Samples;Min_cycle;Max_cycle;Signal;HPM_P1;HPM_P2
2023/03/14 00:01:14;;;;;;;0.30;0.20;;;9.40;99.90;;;;;;5071750;28;20652;-69
2023/03/14 00:03:43;;;;;;;0.30;0.20;;;9.40;99.90;;;;;;5071433;28;20627;-70
2023/03/14 00:06:10;;;;;;;0.30;0.20;;;9.40;99.90;;;;;;5071840;28;20711;-69
2023/03/14 00:08:37;;;;;;;1.37;1.27;;;9.30;99.90;;;;;;5071664;28;20617;-70
2023/03/14 00:11:06;;;;;;;0.70;0.70;;;9.30;99.90;;;;;;5071429;28;20649;-69
2023/03/14 00:13:33;;;;;;;0.50;0.30;;;9.30;99.90;;;;;;5071889;28;20631;-70
2023/03/14 00:16:03;;;;;;;0.30;0.20;;;9.30;99.90;;;;;;5071554;28;20657;-69
2023/03/14 00:18:30;;;;;;;0.50;0.37;;;9.30;99.90;;;;;;5070649;28;21393;-69
2023/03/14 00:21:00;;;;;;;0.30;0.30;;;9.20;99.90;;;;;;5071969;28;20642;-69
2023/03/14 00:23:28;;;;;;;1.47;0.33;;;9.20;99.90;;;;;;5071156;28;20675;-70
2023/03/14 00:25:58;;;;;;;0.53;0.40;;;9.30;99.90;;;;;;5071306;28;20662;-70
2023/03/14 00:28:25;;;;;;;0.60;0.60;;;9.30;99.90;;;;;;5070955;28;20621;-70
2023/03/14 00:30:52;;;;;;;0.30;0.20;;;9.30;99.90;;;;;;5070932;28;21520;-69
2023/03/14 00:33:18;;;;;;;0.60;0.30;;;9.30;99.90;;;;;;5071196;28;20637;-70
2023/03/14 00:35:53;;;;;;;0.40;0.40;;;9.30;99.90;;;;;;5071383;28;20998;-70
2023/03/14 00:38:21;;;;;;;0.50;0.30;;;9.30;99.90;;;;;;5069319;28;20648;-70
2023/03/14 00:40:48;;;;;;;0.70;0.40;;;9.30;99.90;;;;;;5071383;28;20648;-69
2023/03/14 00:43:15;;;;;;;0.30;0.20;;;9.30;99.90;;;;;;5071886;28;20626;-70
2023/03/14 00:45:42;;;;;;;0.50;0.30;;;9.30;99.90;;;;;;5070912;28;20653;-69
2023/03/14 00:48:08;;;;;;;0.30;0.23;;;9.40;99.90;;;;;;5070327;28;20629;-70
2023/03/14 00:50:35;;;;;;;0.30;0.30;;;9.30;99.90;;;;;;5069976;28;20764;-70
2023/03/14 00:53:02;;;;;;;0.90;0.77;;;9.40;99.90;;;;;;5071023;28;20653;-70
2023/03/14 00:55:31;;;;;;;0.40;0.20;;;9.40;99.90;;;;;;5070747;28;20645;-70
2023/03/14 00:57:58;;;;;;;0.40;0.40;;;9.30;99.90;;;;;;5070597;28;20985;-70
2023/03/14 01:00:24;;;;;;;0.30;0.20;;;9.30;99.90;;;;;;5069942;28;20992;-70
2023/03/14 01:02:51;;;;;;;0.77;0.77;;;9.40;99.90;;;;;;5064022;28;21224;-70
2023/03/14 01:05:18;;;;;;;0.40;0.30;;;9.30;99.90;;;;;;5070282;28;21193;-70
2023/03/14 01:07:45;;;;;;;0.73;0.40;;;9.20;99.90;;;;;;5070692;28;20725;-69
2023/03/14 01:10:12;;;;;;;0.73;0.73;;;9.30;99.90;;;;;;5069783;28;20668;-69
2023/03/14 01:12:40;;;;;;;1.13;0.60;;;9.20;99.90;;;;;;5070722;28;20612;-70
2023/03/14 01:15:08;;;;;;;0.30;0.20;;;9.20;99.90;;;;;;5070683;28;20656;-70
2023/03/14 01:17:34;;;;;;;0.50;0.20;;;9.30;99.90;;;;;;5070301;28;20974;-70
2023/03/14 01:20:04;;;;;;;0.30;0.20;;;9.30;99.90;;;;;;5069682;28;21171;-70
2023/03/14 01:22:31;;;;;;;0.30;0.20;;;9.30;99.90;;;;;;5070402;28;21242;-70
2023/03/14 01:24:58;;;;;;;0.70;0.40;;;9.30;99.90;;;;;;5070330;28;20628;-70
2023/03/14 01:27:24;;;;;;;0.30;0.20;;;9.20;99.90;;;;;;5070433;28;20748;-70
2023/03/14 01:29:53;;;;;;;0.30;0.20;;;9.20;99.90;;;;;;5069613;28;20970;-70
2023/03/14 01:32:20;;;;;;;0.30;0.27;;;9.30;99.90;;;;;;5070040;28;20653;-70
2023/03/14 01:34:47;;;;;;;0.50;0.50;;;9.30;99.90;;;;;;5070853;28;20617;-70
2023/03/14 01:37:14;;;;;;;0.30;0.20;;;9.30;99.90;;;;;;5070243;28;20664;-70
2023/03/14 01:39:40;;;;;;;0.40;0.30;;;9.30;99.90;;;;;;5050252;28;20627;-70
2023/03/14 01:42:07;;;;;;;0.30;0.20;;;9.30;99.90;;;;;;5069933;28;20664;-70
2023/03/14 01:44:49;;;;;;;0.37;0.27;;;9.30;99.90;;;;;;5068929;28;20648;-70
2023/03/14 01:47:17;;;;;;;0.30;0.20;;;9.30;99.90;;;;;;5064857;28;20661;-69
2023/03/14 01:49:46;;;;;;;0.40;0.20;;;9.30;99.90;;;;;;5068236;28;20661;-69
2023/03/14 01:52:17;;;;;;;0.30;0.20;;;9.20;99.90;;;;;;5069872;28;21017;-69
2023/03/14 01:54:45;;;;;;;0.40;0.30;;;9.30;99.90;;;;;;5070519;28;21004;-69
2023/03/14 01:57:16;;;;;;;0.30;0.20;;;9.20;99.90;;;;;;5069346;28;20656;-70
2023/03/14 01:59:48;;;;;;;0.60;0.40;;;9.20;99.90;;;;;;5068895;28;20635;-70
2023/03/14 02:02:18;;;;;;;0.30;0.20;;;9.20;99.90;;;;;;5069071;28;21226;-69
2023/03/14 02:04:45;;;;;;;0.53;0.30;;;9.30;99.90;;;;;;5069069;28;20962;-70
2023/03/14 02:07:16;;;;;;;0.30;0.20;;;9.20;99.90;;;;;;5069713;28;20661;-69
2023/03/14 02:09:44;;;;;;;0.40;0.40;;;9.20;99.90;;;;;;5068035;28;20657;-69
2023/03/14 02:12:14;;;;;;;0.30;0.30;;;9.10;99.90;;;;;;5069749;28;20649;-69
2023/03/14 02:14:47;;;;;;;0.73;0.27;;;9.10;99.90;;;;;;5069634;28;21313;-69
2023/03/14 02:17:16;;;;;;;0.30;0.20;;;9.00;99.90;;;;;;5070048;28;20649;-69
2023/03/14 02:19:58;;;;;;;0.30;0.20;;;9.00;99.90;;;;;;5068431;28;21191;-69
2023/03/14 02:22:26;;;;;;;0.70;0.60;;;9.00;99.90;;;;;;5069784;28;21113;-69
2023/03/14 02:25:03;;;;;;;0.30;0.20;;;9.00;99.90;;;;;;5069983;28;20627;-69
2023/03/14 02:27:34;;;;;;;0.30;0.20;;;8.90;99.90;;;;;;5069129;28;20621;-69
2023/03/14 02:30:06;;;;;;;0.40;0.30;;;8.90;99.90;;;;;;5069071;28;20657;-70
2023/03/14 02:32:36;;;;;;;0.40;0.33;;;9.00;99.90;;;;;;5069228;28;20648;-70
2023/03/14 02:35:09;;;;;;;0.30;0.20;;;9.00;99.90;;;;;;5069809;28;20666;-70
2023/03/14 02:37:41;;;;;;;0.30;0.27;;;8.90;99.90;;;;;;5069351;28;20645;-69
2023/03/14 02:40:10;;;;;;;0.30;0.20;;;9.00;99.90;;;;;;5068324;28;20627;-70
2023/03/14 02:42:39;;;;;;;0.30;0.20;;;9.00;99.90;;;;;;5069379;28;20625;-69
2023/03/14 02:45:42;;;;;;;0.30;0.20;;;9.00;99.90;;;;;;5069232;28;20652;-70
2023/03/14 02:48:16;;;;;;;0.30;0.20;;;9.00;99.90;;;;;;5047615;28;20630;-69
2023/03/14 02:50:47;;;;;;;0.30;0.20;;;8.90;99.90;;;;;;5060426;28;20665;-69
2023/03/14 02:53:18;;;;;;;1.20;0.50;;;8.90;99.90;;;;;;5068156;28;20625;-69
2023/03/14 02:55:48;;;;;;;0.40;0.40;;;9.00;99.90;;;;;;5069376;28;20657;-69
2023/03/14 02:58:17;;;;;;;0.30;0.20;;;8.90;99.90;;;;;;5068165;28;20649;-69
2023/03/14 03:00:44;;;;;;;0.30;0.20;;;8.90;99.90;;;;;;5069626;28;20656;-69
2023/03/14 03:03:11;;;;;;;0.30;0.10;;;8.90;99.90;;;;;;5073152;28;20624;-69
2023/03/14 03:05:38;;;;;;;0.30;0.30;;;8.90;99.90;;;;;;5072854;28;20673;-69
2023/03/14 03:08:05;;;;;;;0.40;0.30;;;8.90;99.90;;;;;;5072293;28;21119;-70
2023/03/14 03:10:32;;;;;;;0.30;0.20;;;8.80;99.90;;;;;;5072371;28;20665;-69
2023/03/14 03:13:00;;;;;;;1.30;0.40;;;8.80;99.90;;;;;;5072575;28;20960;-69
2023/03/14 03:15:31;;;;;;;0.30;0.20;;;8.80;99.90;;;;;;5072774;28;21242;-70
2023/03/14 03:17:58;;;;;;;0.40;0.20;;;8.90;99.90;;;;;;5053608;28;20602;-70
2023/03/14 03:20:25;;;;;;;0.67;0.67;;;8.80;99.90;;;;;;5060053;28;20655;-69
2023/03/14 03:22:52;;;;;;;0.30;0.20;;;8.80;99.90;;;;;;5073074;28;21059;-69
2023/03/14 03:25:19;;;;;;;3.40;0.43;;;8.80;99.90;;;;;;5072745;28;20609;-69
2023/03/14 03:27:46;;;;;;;0.37;0.23;;;8.80;99.90;;;;;;5072944;28;20671;-69
2023/03/14 03:30:13;;;;;;;0.50;0.30;;;8.70;99.90;;;;;;5071126;28;21058;-69
2023/03/14 03:32:42;;;;;;;0.90;0.70;;;8.70;99.90;;;;;;5072661;28;20712;-69
2023/03/14 03:35:10;;;;;;;0.40;0.40;;;8.60;99.90;;;;;;5071860;28;20612;-69
2023/03/14 03:37:37;;;;;;;0.40;0.20;;;8.60;99.90;;;;;;5072842;28;20601;-69
2023/03/14 03:40:07;;;;;;;0.87;0.30;;;8.60;99.90;;;;;;5071594;28;20728;-69
2023/03/14 03:42:35;;;;;;;0.40;0.30;;;8.60;99.90;;;;;;5072325;28;20618;-68
2023/03/14 03:45:03;;;;;;;0.37;0.37;;;8.60;99.90;;;;;;5072570;28;20724;-69
2023/03/14 03:47:32;;;;;;;0.30;0.20;;;8.50;99.90;;;;;;5071284;28;20618;-69
2023/03/14 03:50:02;;;;;;;0.40;0.30;;;8.50;99.90;;;;;;5071190;28;20672;-69
2023/03/14 03:52:32;;;;;;;0.40;0.30;;;8.50;99.90;;;;;;5072402;28;20625;-69
2023/03/14 03:54:59;;;;;;;0.93;0.60;;;8.50;99.90;;;;;;5072513;28;20668;-69
2023/03/14 03:57:27;;;;;;;0.30;0.20;;;8.50;99.90;;;;;;5072117;28;20696;-69
2023/03/14 03:59:54;;;;;;;0.40;0.30;;;8.50;99.90;;;;;;5070397;28;20637;-69
2023/03/14 04:02:21;;;;;;;0.67;0.40;;;8.40;99.90;;;;;;5071786;28;21214;-69
2023/03/14 04:04:48;;;;;;;0.30;0.20;;;8.50;99.90;;;;;;5071351;28;20728;-69
2023/03/14 04:07:17;;;;;;;0.47;0.30;;;8.50;99.90;;;;;;5072466;28;21077;-69
2023/03/14 04:09:44;;;;;;;19.47;0.63;;;8.40;99.90;;;;;;5070506;28;20609;-69
2023/03/14 04:12:13;;;;;;;0.70;0.40;;;8.40;99.90;;;;;;5070904;28;20645;-68
2023/03/14 04:14:41;;;;;;;4.10;1.20;;;8.30;99.90;;;;;;5071131;28;20621;-68
2023/03/14 04:17:09;;;;;;;0.70;0.57;;;8.30;99.90;;;;;;5071364;28;20653;-69
2023/03/14 04:19:39;;;;;;;0.30;0.20;;;8.40;99.90;;;;;;5070307;28;20986;-69
2023/03/14 04:22:06;;;;;;;1.07;0.30;;;8.40;99.90;;;;;;5071733;28;20685;-69
2023/03/14 04:24:35;;;;;;;2.50;2.00;;;8.40;99.90;;;;;;5071805;28;20699;-69
2023/03/14 04:27:03;;;;;;;0.37;0.23;;;8.30;99.90;;;;;;5071636;28;20657;-69
2023/03/14 04:29:30;;;;;;;0.40;0.20;;;8.30;99.90;;;;;;5069848;28;20622;-69
2023/03/14 04:31:57;;;;;;;0.80;0.33;;;8.30;99.90;;;;;;5071207;28;20219;-69
2023/03/14 04:34:24;;;;;;;0.53;0.37;;;8.20;99.90;;;;;;5071431;28;20626;-68
2023/03/14 04:36:50;;;;;;;0.30;0.30;;;8.20;99.90;;;;;;5071476;28;20645;-69
2023/03/14 04:39:17;;;;;;;0.60;0.27;;;8.20;99.90;;;;;;5070519;28;21190;-69
2023/03/14 04:41:46;;;;;;;1.50;0.93;;;8.20;99.90;;;;;;5070483;28;20744;-69
2023/03/14 04:44:13;;;;;;;0.40;0.33;;;8.30;99.90;;;;;;5071511;28;20661;-69
2023/03/14 04:46:40;;;;;;;0.30;0.20;;;8.30;99.90;;;;;;5070952;28;21292;-69
2023/03/14 04:49:07;;;;;;;0.60;0.53;;;8.30;99.90;;;;;;5069864;28;20613;-70
2023/03/14 04:51:33;;;;;;;0.40;0.40;;;8.40;99.90;;;;;;5070519;28;20688;-68
2023/03/14 04:54:00;;;;;;;0.77;0.60;;;8.30;99.90;;;;;;5070625;28;20666;-69
2023/03/14 04:56:27;;;;;;;2.10;0.53;;;8.30;99.90;;;;;;5070064;28;20652;-69
2023/03/14 04:58:55;;;;;;;6.73;0.63;;;8.30;99.90;;;;;;5069955;28;21022;-69
2023/03/14 05:01:23;;;;;;;0.45;0.45;;;8.30;99.90;;;;;;5070407;28;20651;-69
2023/03/14 05:03:50;;;;;;;1.00;0.30;;;8.30;99.90;;;;;;5057334;28;20200;-69
2023/03/14 05:06:17;;;;;;;0.50;0.40;;;8.20;99.90;;;;;;5070504;28;20688;-69
2023/03/14 05:08:44;;;;;;;0.40;0.20;;;8.20;99.90;;;;;;5069479;28;20195;-69
2023/03/14 05:11:11;;;;;;;1.43;0.50;;;8.30;99.90;;;;;;5070511;28;20649;-69
2023/03/14 05:13:38;;;;;;;0.90;0.50;;;8.20;99.90;;;;;;5071247;28;20632;-69
2023/03/14 05:16:08;;;;;;;0.68;0.50;;;8.20;99.90;;;;;;5070177;28;20219;-69
2023/03/14 05:18:36;;;;;;;0.40;0.30;;;8.20;99.90;;;;;;5069504;28;20207;-69
2023/03/14 05:21:03;;;;;;;0.30;0.20;;;8.20;99.90;;;;;;5070288;28;20653;-69
2023/03/14 05:23:30;;;;;;;0.40;0.40;;;8.20;99.90;;;;;;5069392;28;20616;-69
2023/03/14 05:25:57;;;;;;;0.30;0.28;;;8.20;99.90;;;;;;5070373;28;20235;-69
2023/03/14 05:28:24;;;;;;;0.60;0.50;;;8.20;99.90;;;;;;5069939;28;20205;-69
2023/03/14 05:30:51;;;;;;;0.38;0.25;;;8.30;99.90;;;;;;5069451;28;20242;-69
2023/03/14 05:33:19;;;;;;;0.40;0.30;;;8.10;99.90;;;;;;5070073;28;20197;-68
2023/03/14 05:35:45;;;;;;;0.33;0.33;;;8.20;99.90;;;;;;5069211;28;20664;-69
2023/03/14 05:38:12;;;;;;;1.13;0.93;;;8.20;99.90;;;;;;5068860;28;20705;-68
2023/03/14 05:40:39;;;;;;;0.40;0.40;;;8.30;99.90;;;;;;5069779;28;20653;-69
2023/03/14 05:43:07;;;;;;;0.60;0.60;;;8.30;99.90;;;;;;5070501;28;20202;-68
2023/03/14 05:45:35;;;;;;;1.40;0.43;;;8.30;99.90;;;;;;5069495;28;20788;-69
2023/03/14 05:48:02;;;;;;;0.40;0.23;;;8.30;99.90;;;;;;5069926;28;21174;-69
2023/03/14 05:50:30;;;;;;;1.40;0.60;;;8.30;99.90;;;;;;5068344;28;20649;-69
2023/03/14 05:52:57;;;;;;;2.30;0.33;;;8.20;99.90;;;;;;5069764;28;20632;-70
2023/03/14 05:55:23;;;;;;;0.80;0.60;;;8.30;99.90;;;;;;5069716;28;22358;-68
2023/03/14 05:57:50;;;;;;;0.30;0.20;;;8.30;99.90;;;;;;5069886;28;21097;-68
2023/03/14 06:00:18;;;;;;;0.60;0.60;;;8.20;99.90;;;;;;5068726;28;20618;-69
2023/03/14 06:02:45;;;;;;;0.30;0.20;;;8.20;99.90;;;;;;5069352;28;21254;-69
2023/03/14 06:05:12;;;;;;;0.50;0.30;;;8.30;99.90;;;;;;5069046;28;20979;-69
2023/03/14 06:07:40;;;;;;;0.45;0.45;;;8.20;99.90;;;;;;5069218;28;20621;-68
2023/03/14 06:10:07;;;;;;;0.80;0.80;;;8.20;99.90;;;;;;5068690;28;20555;-69
2023/03/14 06:12:34;;;;;;;0.90;0.90;;;8.20;99.90;;;;;;5069645;28;20218;-68
2023/03/14 06:15:01;;;;;;;6.53;1.45;;;8.20;99.90;;;;;;5069769;28;20633;-68
2023/03/14 06:17:28;;;;;;;1.93;1.37;;;8.20;99.90;;;;;;5069336;28;20194;-68
2023/03/14 06:19:54;;;;;;;1.45;1.33;;;8.20;99.90;;;;;;5068614;28;20618;-68
2023/03/14 06:22:21;;;;;;;0.40;0.38;;;8.20;99.90;;;;;;5069311;28;20221;-68
2023/03/14 06:24:49;;;;;;;1.50;1.40;;;8.20;99.90;;;;;;5069680;28;20195;-68
2023/03/14 06:27:16;;;;;;;0.57;0.50;;;8.20;99.90;;;;;;5069499;28;20233;-68
2023/03/14 06:29:43;;;;;;;0.30;0.20;;;8.30;99.90;;;;;;5068421;28;20195;-68
2023/03/14 06:32:10;;;;;;;0.87;0.70;;;8.20;99.90;;;;;;5068831;28;20330;-69
2023/03/14 06:34:38;;;;;;;0.63;0.53;;;8.20;99.90;;;;;;5069437;28;20626;-69
2023/03/14 06:37:05;;;;;;;0.40;0.30;;;8.20;99.90;;;;;;5060761;28;20667;-69
2023/03/14 06:39:32;;;;;;;0.60;0.30;;;8.10;99.90;;;;;;5069841;28;20187;-69
2023/03/14 06:42:00;;;;;;;0.30;0.27;;;8.20;99.90;;;;;;5070841;28;20756;-69
2023/03/14 06:44:27;;;;;;;0.37;0.23;;;8.10;99.90;;;;;;5073110;28;20716;-69
2023/03/14 06:46:54;;;;;;;0.45;0.30;;;8.10;99.90;;;;;;5072144;28;20646;-68
2023/03/14 06:49:22;;;;;;;0.37;0.30;;;8.20;99.90;;;;;;5070683;28;20236;-69
2023/03/14 06:51:48;;;;;;;0.30;0.20;;;8.20;99.90;;;;;;5072627;28;21273;-69
2023/03/14 06:54:15;;;;;;;0.30;0.30;;;8.30;99.90;;;;;;5073446;28;20999;-69
2023/03/14 06:56:42;;;;;;;0.30;0.20;;;8.30;99.90;;;;;;5073351;28;20663;-68
2023/03/14 06:59:10;;;;;;;0.37;0.27;;;8.50;99.90;;;;;;5071645;28;20621;-70
2023/03/14 07:01:37;;;;;;;0.30;0.30;;;8.60;99.90;;;;;;5073335;28;20649;-68
2023/03/14 07:04:04;;;;;;;0.47;0.30;;;8.60;99.90;;;;;;5072970;28;20628;-69
2023/03/14 07:06:30;;;;;;;0.90;0.43;;;8.70;99.90;;;;;;5073080;28;20649;-68
2023/03/14 07:08:58;;;;;;;0.40;0.30;;;8.70;99.90;;;;;;5071835;28;20629;-69
2023/03/14 07:11:25;;;;;;;0.40;0.33;;;8.80;99.90;;;;;;5072276;28;20727;-69
2023/03/14 07:13:51;;;;;;;0.30;0.20;;;8.80;99.90;;;;;;5072633;28;20616;-69
2023/03/14 07:16:19;;;;;;;0.37;0.33;;;8.90;99.90;;;;;;5072547;28;21047;-71
2023/03/14 07:18:47;;;;;;;0.30;0.10;;;9.00;99.90;;;;;;5072042;28;20616;-69
2023/03/14 07:21:13;;;;;;;1.23;0.40;;;9.10;99.90;;;;;;5071747;28;21049;-68
2023/03/14 07:23:41;;;;;;;0.40;0.27;;;9.10;99.90;;;;;;5072626;28;20628;-68
2023/03/14 07:26:08;;;;;;;0.40;0.30;;;9.10;99.90;;;;;;5072531;28;20710;-69
2023/03/14 07:28:34;;;;;;;2.00;0.67;;;9.30;99.90;;;;;;5070780;28;20625;-69
2023/03/14 07:31:01;;;;;;;0.30;0.20;;;9.40;99.90;;;;;;5072572;28;20651;-69
2023/03/14 07:33:29;;;;;;;0.30;0.20;;;9.50;99.90;;;;;;5072549;28;20692;-69
2023/03/14 07:35:56;;;;;;;0.30;0.20;;;9.60;99.90;;;;;;5072370;28;20744;-69
2023/03/14 07:38:23;;;;;;;0.30;0.20;;;9.70;99.90;;;;;;5064251;28;20658;-69
2023/03/14 07:40:51;;;;;;;0.30;0.20;;;9.70;99.90;;;;;;5068268;28;20659;-69
2023/03/14 07:43:18;;;;;;;0.30;0.20;;;9.70;99.90;;;;;;5072423;28;20613;-70
2023/03/14 07:45:47;;;;;;;0.77;0.37;;;9.70;99.90;;;;;;5069737;28;20721;-70
2023/03/14 07:48:14;;;;;;;0.50;0.20;;;9.70;99.90;;;;;;5070355;28;20622;-68
2023/03/14 07:50:42;;;;;;;0.30;0.20;;;9.70;99.90;;;;;;5071456;28;20645;-68
2023/03/14 07:53:08;;;;;;;5.60;0.60;;;9.80;99.90;;;;;;5071181;28;20664;-68
2023/03/14 07:55:35;;;;;;;0.60;0.20;;;9.80;99.70;;;;;;5070179;28;20645;-69
2023/03/14 07:58:02;;;;;;;0.30;0.20;;;9.80;99.60;;;;;;5070787;28;20623;-68
2023/03/14 08:00:29;;;;;;;0.50;0.30;;;9.80;99.90;;;;;;5071497;28;20649;-69
2023/03/14 08:02:56;;;;;;;0.70;0.27;;;9.80;99.90;;;;;;5071860;28;20627;-69
2023/03/14 08:05:22;;;;;;;0.30;0.20;;;9.80;99.80;;;;;;5070311;28;20618;-69
2023/03/14 08:07:51;;;;;;;14.83;1.07;;;9.80;99.70;;;;;;5070530;28;21072;-69
2023/03/14 08:10:21;;;;;;;0.70;0.40;;;9.90;99.90;;;;;;5070593;28;20995;-68
2023/03/14 08:12:48;;;;;;;0.30;0.17;;;10.00;98.60;;;;;;5071087;28;20657;-69
2023/03/14 08:15:15;;;;;;;0.30;0.30;;;10.10;98.90;;;;;;5071135;28;20737;-68
2023/03/14 08:17:42;;;;;;;0.30;0.20;;;10.10;98.60;;;;;;5070344;28;20625;-68
2023/03/14 08:20:11;;;;;;;0.73;0.73;;;10.20;98.90;;;;;;5069724;28;20613;-70
2023/03/14 08:22:38;;;;;;;1.80;0.30;;;10.40;98.50;;;;;;5069934;28;20695;-69
2023/03/14 08:25:07;;;;;;;1.87;1.80;;;10.50;98.10;;;;;;5070834;28;20623;-69
2023/03/14 08:27:34;;;;;;;0.67;0.47;;;10.50;98.30;;;;;;5071258;28;20626;-70
2023/03/14 08:30:01;;;;;;;0.40;0.40;;;10.60;97.80;;;;;;5068535;28;20617;-69
2023/03/14 08:32:27;;;;;;;0.30;0.30;;;10.70;97.50;;;;;;5069126;28;20669;-69
2023/03/14 08:34:54;;;;;;;0.30;0.20;;;10.90;97.30;;;;;;5070145;28;20632;-70
2023/03/14 08:37:21;;;;;;;0.40;0.30;;;11.20;96.40;;;;;;5070990;28;21252;-69
2023/03/14 08:39:48;;;;;;;0.57;0.30;;;11.50;95.90;;;;;;5069615;28;20730;-69
2023/03/14 08:42:16;;;;;;;7.83;1.80;;;11.60;94.80;;;;;;5070500;28;20645;-68
2023/03/14 08:44:43;;;;;;;0.40;0.30;;;11.70;94.30;;;;;;5070364;28;20632;-69
2023/03/14 08:47:10;;;;;;;1.47;0.77;;;11.80;95.00;;;;;;5070340;28;20656;-68
2023/03/14 08:49:36;;;;;;;0.30;0.20;;;11.70;93.80;;;;;;5068530;28;20624;-69
2023/03/14 08:52:04;;;;;;;0.30;0.10;;;11.70;93.90;;;;;;5069827;28;20780;-69
2023/03/14 08:54:30;;;;;;;0.70;0.30;;;11.90;93.80;;;;;;5069771;28;20664;-69
2023/03/14 08:56:57;;;;;;;1.10;0.70;;;11.90;93.80;;;;;;5070248;28;20656;-68
2023/03/14 08:59:25;;;;;;;0.40;0.40;;;11.80;93.40;;;;;;5069441;28;20618;-69
2023/03/14 09:01:53;;;;;;;0.30;0.17;;;11.90;94.50;;;;;;5068565;28;20733;-69
2023/03/14 09:04:20;;;;;;;0.30;0.20;;;11.90;93.60;;;;;;5068613;28;20629;-69
2023/03/14 09:06:47;;;;;;;0.60;0.33;;;12.00;93.90;;;;;;5069566;28;20761;-69
2023/03/14 09:09:14;;;;;;;0.40;0.20;;;11.90;94.20;;;;;;5069358;28;20745;-68
2023/03/14 09:11:41;;;;;;;0.60;0.30;;;11.80;94.80;;;;;;5069942;28;20669;-69
2023/03/14 09:14:07;;;;;;;0.30;0.20;;;11.50;94.90;;;;;;5068116;28;20640;-69
2023/03/14 09:16:36;;;;;;;2.10;0.33;;;11.40;95.50;;;;;;5066334;28;20668;-69
2023/03/14 09:19:02;;;;;;;0.43;0.30;;;11.60;95.90;;;;;;5067565;28;20621;-69
2023/03/14 09:21:29;;;;;;;0.30;0.20;;;11.60;96.10;;;;;;5068555;28;20646;-69
2023/03/14 09:23:56;;;;;;;0.30;0.20;;;11.50;96.20;;;;;;5068843;28;20629;-68
2023/03/14 09:26:23;;;;;;;0.30;0.20;;;11.40;96.50;;;;;;5069422;28;21244;-69
2023/03/14 09:28:49;;;;;;;0.30;0.20;;;11.50;96.70;;;;;;5068260;28;20640;-68
2023/03/14 09:31:16;;;;;;;0.30;0.20;;;11.50;95.90;;;;;;5068339;28;20757;-68
2023/03/14 09:33:45;;;;;;;0.30;0.20;;;11.60;96.10;;;;;;5069212;28;20665;-68
2023/03/14 09:36:12;;;;;;;0.30;0.20;;;11.90;97.10;;;;;;5070043;28;20660;-69
2023/03/14 09:38:39;;;;;;;0.40;0.30;;;11.90;95.20;;;;;;5068608;28;20622;-68
2023/03/14 09:41:15;;;;;;;0.30;0.20;;;11.90;95.00;;;;;;5070372;28;20646;-68
2023/03/14 09:43:44;;;;;;;0.47;0.33;;;11.70;94.90;;;;;;5068877;28;20629;-70
2023/03/14 09:46:12;;;;;;;0.30;0.20;;;11.80;95.20;;;;;;5070013;28;20683;-68
2023/03/14 09:48:38;;;;;;;0.50;0.33;;;11.80;94.80;;;;;;5068961;28;20625;-68
2023/03/14 09:51:13;;;;;;;0.30;0.23;;;11.70;94.00;;;;;;5069836;28;21256;-68
2023/03/14 09:53:42;;;;;;;14.10;1.90;;;11.60;94.60;;;;;;5069121;28;20756;-69
2023/03/14 09:56:14;;;;;;;0.30;0.20;;;11.60;94.80;;;;;;5069041;28;20645;-69
2023/03/14 09:58:43;;;;;;;0.40;0.23;;;11.70;94.80;;;;;;5068814;28;20632;-69
2023/03/14 10:01:15;;;;;;;0.30;0.20;;;11.60;94.20;;;;;;5070275;28;20657;-68
2023/03/14 10:03:46;;;;;;;0.40;0.20;;;11.40;93.80;;;;;;5069712;28;20664;-68
2023/03/14 10:06:14;;;;;;;0.30;0.17;;;11.60;94.40;;;;;;5069714;28;21043;-69
2023/03/14 10:08:42;;;;;;;0.30;0.20;;;11.50;94.10;;;;;;5067774;28;20619;-69
2023/03/14 10:11:15;;;;;;;1.90;0.40;;;11.50;94.80;;;;;;5071109;28;21222;-68
2023/03/14 10:13:50;;;;;;;0.30;0.20;;;11.50;93.80;;;;;;5074006;28;20665;-68
2023/03/14 10:16:16;;;;;;;0.30;0.20;;;11.60;94.40;;;;;;5073693;28;20759;-68
2023/03/14 10:18:46;;;;;;;0.30;0.20;;;11.70;94.90;;;;;;5072569;28;20618;-68
2023/03/14 10:21:33;;;;;;;1.53;0.53;;;11.90;94.70;;;;;;5072892;28;20653;-70
2023/03/14 10:24:19;;;;;;;0.50;0.20;;;12.20;94.80;;;;;;5072762;28;20621;-69
2023/03/14 10:26:49;;;;;;;0.40;0.30;;;12.20;93.60;;;;;;5073237;28;21222;-68
2023/03/14 10:29:17;;;;;;;0.30;0.20;;;12.40;93.60;;;;;;5072173;28;20628;-69
2023/03/14 10:31:54;;;;;;;0.30;0.20;;;12.50;93.40;;;;;;5071962;28;21214;-68
2023/03/14 10:34:24;;;;;;;0.30;0.20;;;12.30;92.80;;;;;;5073826;28;20711;-68
2023/03/14 10:36:57;;;;;;;0.30;0.20;;;12.30;93.00;;;;;;5073202;28;20641;-68
2023/03/14 10:39:33;;;;;;;0.30;0.20;;;12.50;92.70;;;;;;5068987;28;20625;-69
2023/03/14 10:42:07;;;;;;;0.30;0.30;;;12.50;92.40;;;;;;5058117;28;20641;-68
2023/03/14 10:44:35;;;;;;;0.30;0.30;;;12.80;92.80;;;;;;5074091;28;20615;-68
2023/03/14 10:47:05;;;;;;;0.40;0.23;;;12.80;92.20;;;;;;5073112;28;20654;-69
2023/03/14 10:49:33;;;;;;;0.70;0.43;;;12.90;92.00;;;;;;5070565;28;21174;-69
2023/03/14 10:52:16;;;;;;;0.30;0.20;;;13.00;92.00;;;;;;5060059;28;20689;-69
2023/03/14 10:54:48;;;;;;;1.60;0.30;;;13.00;91.60;;;;;;5067289;28;20653;-69
2023/03/14 10:57:15;;;;;;;0.40;0.30;;;12.70;92.50;;;;;;5073514;28;20649;-69
2023/03/14 10:59:43;;;;;;;0.40;0.20;;;12.40;94.30;;;;;;5070321;28;21162;-68
2023/03/14 11:02:26;;;;;;;0.30;0.20;;;12.30;94.60;;;;;;5072391;28;20653;-70
2023/03/14 11:05:04;;;;;;;0.30;0.20;;;12.10;94.00;;;;;;5063828;28;20629;-69
2023/03/14 11:07:39;;;;;;;0.30;0.20;;;11.80;94.20;;;;;;5070464;28;20610;-69
2023/03/14 11:10:19;;;;;;;0.30;0.20;;;11.70;94.70;;;;;;5071235;28;20746;-68
2023/03/14 11:13:02;;;;;;;0.30;0.30;;;11.70;95.20;;;;;;5072762;28;20671;-69
2023/03/14 11:15:33;;;;;;;0.30;0.23;;;11.70;94.90;;;;;;5071954;28;20669;-69
2023/03/14 11:18:32;;;;;;;0.30;0.20;;;11.70;95.50;;;;;;5073234;28;20609;-69
2023/03/14 11:21:08;;;;;;;0.47;0.30;;;11.70;93.70;;;;;;5048884;28;20661;-68
2023/03/14 11:23:46;;;;;;;0.40;0.20;;;11.70;95.20;;;;;;5069627;28;20694;-68
2023/03/14 11:26:26;;;;;;;0.30;0.20;;;11.60;95.30;;;;;;5065101;28;20656;-68
2023/03/14 11:28:58;;;;;;;0.30;0.20;;;11.40;96.10;;;;;;5071634;28;20625;-69
2023/03/14 11:31:28;;;;;;;0.30;0.30;;;11.30;96.30;;;;;;5071780;28;20645;-68
2023/03/14 11:34:01;;;;;;;0.30;0.30;;;11.20;97.20;;;;;;5072214;28;20657;-69
2023/03/14 11:36:33;;;;;;;0.30;0.20;;;10.90;98.10;;;;;;5070981;28;21044;-69
2023/03/14 11:39:03;;;;;;;0.30;0.20;;;11.00;98.40;;;;;;5059645;28;20738;-69
2023/03/14 11:41:33;;;;;;;0.30;0.30;;;10.90;97.50;;;;;;5068080;28;21473;-68
2023/03/14 11:44:05;;;;;;;0.30;0.20;;;10.90;98.70;;;;;;5071937;28;20962;-68
2023/03/14 11:46:35;;;;;;;0.40;0.40;;;10.90;99.40;;;;;;5072359;28;20660;-69
2023/03/14 11:49:07;;;;;;;0.30;0.20;;;10.90;99.90;;;;;;5070240;28;20617;-68
2023/03/14 11:51:36;;;;;;;0.70;0.20;;;10.90;99.80;;;;;;5070742;28;21004;-68
2023/03/14 11:54:15;;;;;;;0.30;0.20;;;10.90;99.90;;;;;;5071797;28;20657;-68
2023/03/14 11:56:47;;;;;;;0.30;0.20;;;10.90;99.60;;;;;;5070095;28;21249;-68
2023/03/14 11:59:18;;;;;;;0.30;0.30;;;10.90;99.30;;;;;;5069393;28;20618;-68
2023/03/14 12:01:55;;;;;;;0.47;0.47;;;10.80;99.30;;;;;;5071522;28;20645;-69
2023/03/14 12:04:35;;;;;;;0.30;0.20;;;10.90;99.10;;;;;;5072565;28;20624;-69
2023/03/14 12:07:05;;;;;;;0.37;0.23;;;10.90;99.00;;;;;;5071553;28;20645;-68
2023/03/14 12:09:35;;;;;;;0.30;0.20;;;10.90;99.60;;;;;;5069474;28;20621;-69
2023/03/14 12:12:04;;;;;;;0.40;0.30;;;10.90;99.00;;;;;;5070695;28;20684;-68
2023/03/14 12:14:34;;;;;;;0.57;0.47;;;10.80;99.50;;;;;;5070257;28;20671;-68
2023/03/14 12:17:07;;;;;;;0.30;0.20;;;10.70;99.50;;;;;;5070155;28;20749;-68
2023/03/14 12:19:38;;;;;;;0.30;0.20;;;10.70;99.90;;;;;;5069121;28;20631;-69
2023/03/14 12:22:28;;;;;;;0.30;0.23;;;10.70;99.70;;;;;;5070763;28;20649;-69
2023/03/14 12:25:01;;;;;;;0.30;0.20;;;10.60;99.90;;;;;;5069506;28;20613;-68
2023/03/14 12:28:03;;;;;;;0.40;0.30;;;10.50;98.70;;;;;;5055746;28;20704;-68
2023/03/14 12:30:32;;;;;;;0.30;0.20;;;10.70;98.10;;;;;;5056307;28;20657;-68
2023/03/14 12:33:30;;;;;;;0.40;0.30;;;10.80;97.90;;;;;;5070545;28;21277;-68
2023/03/14 12:36:19;;;;;;;0.50;0.20;;;10.60;96.60;;;;;;5070165;28;20664;-68
2023/03/14 12:39:08;;;;;;;0.30;0.30;;;10.30;95.60;;;;;;5068347;28;20625;-69
2023/03/14 12:41:45;;;;;;;0.43;0.23;;;10.20;95.40;;;;;;5070751;28;20660;-69
2023/03/14 12:44:44;;;;;;;0.40;0.30;;;10.00;94.80;;;;;;5071370;28;20630;-68
2023/03/14 12:47:49;;;;;;;0.30;0.20;;;10.20;95.30;;;;;;5070236;28;20649;-68
2023/03/14 12:50:21;;;;;;;0.40;0.30;;;10.50;95.50;;;;;;5061839;28;20824;-68
2023/03/14 12:53:04;;;;;;;0.87;0.50;;;10.70;95.80;;;;;;5064258;28;20764;-68
2023/03/14 12:55:37;;;;;;;0.30;0.20;;;10.70;94.10;;;;;;5069437;28;20659;-68
2023/03/14 12:58:13;;;;;;;0.70;0.70;;;10.70;93.20;;;;;;5070014;28;20628;-69
2023/03/14 13:00:40;;;;;;;0.50;0.30;;;10.60;92.20;;;;;;5070126;28;20652;-68
2023/03/14 13:03:19;;;;;;;0.30;0.20;;;10.50;90.20;;;;;;5071154;28;20709;-68
2023/03/14 13:05:57;;;;;;;0.30;0.30;;;10.10;85.20;;;;;;5070016;28;20751;-69